createdAt,value
2018-09-02T00:00:55.572Z,44.60
2018-09-02T00:03:24.465Z,44.60
2018-09-02T00:05:53.578Z,44.30
2018-09-02T00:08:22.446Z,44.70
2018-09-02T00:10:51.606Z,44.70
2018-09-02T00:13:20.721Z,45.30
2018-09-02T00:15:49.576Z,45.20
2018-09-02T00:18:18.472Z,44.90
2018-09-02T00:20:47.322Z,45.50
2018-09-02T00:23:16.482Z,45.90
2018-09-02T00:25:45.611Z,45.90
2018-09-02T00:28:14.467Z,46.10
2018-09-02T00:30:43.958Z,46.20
2018-09-02T00:33:12.939Z,46.40
2018-09-02T00:35:41.680Z,46.80
2018-09-02T00:38:10.571Z,46.80
2018-09-02T00:40:39.726Z,46.70
2018-09-02T00:43:08.622Z,46.40
2018-09-02T00:45:37.788Z,47.10
2018-09-02T00:48:06.692Z,46.70
2018-09-02T00:50:35.554Z,45.90
2018-09-02T00:53:04.523Z,46.10
2018-09-02T00:55:33.887Z,46.10
2018-09-02T00:58:02.780Z,45.60
2018-09-02T01:00:31.641Z,45.60
2018-09-02T01:03:00.514Z,45.80
2018-09-02T01:05:29.373Z,46.50
2018-09-02T01:07:58.459Z,46.10
2018-09-02T01:10:27.543Z,45.60
2018-09-02T01:12:56.696Z,46.10
2018-09-02T01:15:25.830Z,46.50
2018-09-02T01:17:54.697Z,47.40
2018-09-02T01:20:24.139Z,46.40
2018-09-02T01:22:53.017Z,46.20
2018-09-02T01:25:21.882Z,46.80
2018-09-02T01:27:51.106Z,46.50
2018-09-02T01:30:20.363Z,46.80
2018-09-02T01:32:49.479Z,46.40
2018-09-02T01:35:23.583Z,46.80
2018-09-02T01:37:52.465Z,47.40
2018-09-02T01:40:23.291Z,47.40
2018-09-02T01:42:52.526Z,47.50
2018-09-02T01:45:21.377Z,47.00
2018-09-02T01:47:50.544Z,47.40
2018-09-02T01:50:19.442Z,47.40
2018-09-02T01:52:48.791Z,46.80
2018-09-02T01:55:17.918Z,46.80
2018-09-02T01:57:47.095Z,47.40
2018-09-02T02:00:17.208Z,47.00
2018-09-02T02:02:47.035Z,47.10
2018-09-02T02:05:16.173Z,46.80
2018-09-02T02:07:45.035Z,48.10
2018-09-02T02:10:13.949Z,48.10
2018-09-02T02:12:43.375Z,47.70
2018-09-02T02:15:12.218Z,48.00
2018-09-02T02:17:41.502Z,47.30
2018-09-02T02:20:10.427Z,47.80
2018-09-02T02:22:43.125Z,48.30
2018-09-02T02:25:15.588Z,47.80
2018-09-02T02:27:47.112Z,48.30
2018-09-02T02:30:21.404Z,48.00
2018-09-02T02:32:53.344Z,48.00
2018-09-02T02:35:24.978Z,48.90
2018-09-02T02:37:54.339Z,48.10
2018-09-02T02:40:23.490Z,48.70
2018-09-02T02:42:52.675Z,48.70
2018-09-02T02:45:21.613Z,49.00
2018-09-02T02:47:50.719Z,48.60
2018-09-02T02:50:19.584Z,48.70
2018-09-02T02:52:53.810Z,47.80
2018-09-02T02:55:22.679Z,48.60
2018-09-02T02:57:53.142Z,48.10
2018-09-02T03:00:22.064Z,48.40
2018-09-02T03:02:50.917Z,48.30
2018-09-02T03:05:19.780Z,47.80
2018-09-02T03:07:48.679Z,47.80
2018-09-02T03:10:17.778Z,48.60
2018-09-02T03:12:46.678Z,48.40
2018-09-02T03:15:15.643Z,48.60
2018-09-02T03:17:44.543Z,48.90
2018-09-02T03:20:13.451Z,48.40
2018-09-02T03:22:42.298Z,48.30
2018-09-02T03:25:11.343Z,48.30
2018-09-02T03:27:40.459Z,48.10
2018-09-02T03:30:09.354Z,48.70
2018-09-02T03:32:38.211Z,48.70
2018-09-02T03:35:07.084Z,49.00
2018-09-02T03:37:35.989Z,48.70
2018-09-02T03:40:05.717Z,50.20
2018-09-02T03:42:34.904Z,49.90
2018-09-02T03:45:03.776Z,49.90
2018-09-02T03:47:32.905Z,50.70
2018-09-02T03:50:02.612Z,50.40
2018-09-02T03:52:31.463Z,51.10
2018-09-02T03:55:00.331Z,50.80
2018-09-02T03:57:29.203Z,51.10
2018-09-02T03:59:58.070Z,50.50
2018-09-02T04:02:26.966Z,50.50
2018-09-02T04:04:55.837Z,50.10
2018-09-02T04:07:25.023Z,50.20
2018-09-02T04:09:54.050Z,50.10
2018-09-02T04:12:22.905Z,49.60
2018-09-02T04:14:51.774Z,50.20
2018-09-02T04:17:20.659Z,50.20
2018-09-02T04:19:49.528Z,50.70
2018-09-02T04:22:18.387Z,49.60
2018-09-02T04:24:47.767Z,49.30
2018-09-02T04:27:16.619Z,49.80
2018-09-02T04:29:45.499Z,49.80
2018-09-02T04:32:14.730Z,49.90
2018-09-02T04:34:43.590Z,49.50
2018-09-02T04:37:12.450Z,49.60
2018-09-02T04:39:41.367Z,49.80
2018-09-02T04:42:10.215Z,49.50
2018-09-02T04:44:39.432Z,49.90
2018-09-02T04:47:08.310Z,49.60
2018-09-02T04:49:49.327Z,50.10
2018-09-02T04:52:20.219Z,49.90
2018-09-02T04:54:49.126Z,50.20
2018-09-02T04:57:18.016Z,50.20
2018-09-02T04:59:46.966Z,50.10
2018-09-02T05:02:16.179Z,50.50
2018-09-02T05:04:45.111Z,50.10
2018-09-02T05:07:14.168Z,49.90
2018-09-02T05:09:43.118Z,50.40
2018-09-02T05:12:12.288Z,49.80
2018-09-02T05:14:41.298Z,49.90
2018-09-02T05:17:10.549Z,50.10
2018-09-02T05:19:39.429Z,49.80
2018-09-02T05:22:08.295Z,50.10
2018-09-02T05:24:37.215Z,51.10
2018-09-02T05:27:06.084Z,50.40
2018-09-02T05:29:34.967Z,50.70
2018-09-02T05:32:03.947Z,50.40
2018-09-02T05:34:33.145Z,50.10
2018-09-02T05:37:02.370Z,50.70
2018-09-02T05:39:31.766Z,51.20
2018-09-02T05:42:00.642Z,51.10
2018-09-02T05:44:29.564Z,50.20
2018-09-02T05:46:58.427Z,50.10
2018-09-02T05:49:27.579Z,49.50
2018-09-02T05:51:56.456Z,49.20
2018-09-02T05:54:25.875Z,49.90
2018-09-02T05:56:54.807Z,50.20
2018-09-02T05:59:24.280Z,50.40
2018-09-02T06:01:53.241Z,50.40
2018-09-02T06:04:22.135Z,50.10
2018-09-02T06:06:51.005Z,49.50
2018-09-02T06:09:20.346Z,49.30
2018-09-02T06:11:50.397Z,49.80
2018-09-02T06:14:19.821Z,49.30
2018-09-02T06:16:48.787Z,49.20
2018-09-02T06:19:17.734Z,49.20
2018-09-02T06:21:46.632Z,50.10
2018-09-02T06:24:15.525Z,49.50
2018-09-02T06:26:44.779Z,49.80
2018-09-02T06:29:13.727Z,49.60
2018-09-02T06:31:42.654Z,49.90
2018-09-02T06:34:11.599Z,50.40
2018-09-02T06:36:40.814Z,50.40
2018-09-02T06:39:11.490Z,50.10
2018-09-02T06:41:40.668Z,50.10
2018-09-02T06:44:10.226Z,49.80
2018-09-02T06:46:39.116Z,50.10
2018-09-02T06:49:08.102Z,50.40
2018-09-02T06:51:37.319Z,50.20
2018-09-02T06:54:06.474Z,50.20
2018-09-02T06:56:35.562Z,50.50
2018-09-02T06:59:04.420Z,50.80
2018-09-02T07:01:34.016Z,51.10
2018-09-02T07:04:02.898Z,50.20
2018-09-02T07:06:31.807Z,50.70
2018-09-02T07:09:00.746Z,50.40
2018-09-02T07:11:29.812Z,50.50
2018-09-02T07:13:58.909Z,50.20
2018-09-02T07:16:28.374Z,50.90
2018-09-02T07:18:57.315Z,50.70
2018-09-02T07:21:26.214Z,51.20
2018-09-02T07:23:55.266Z,51.10
2018-09-02T07:26:24.329Z,51.80
2018-09-02T07:28:53.574Z,52.30
2018-09-02T07:31:23.917Z,53.20
2018-09-02T07:33:53.900Z,52.30
2018-09-02T07:36:23.802Z,53.20
2018-09-02T07:38:53.220Z,53.20
2018-09-02T07:41:22.076Z,53.60
2018-09-02T07:43:51.616Z,53.80
2018-09-02T07:46:20.479Z,53.50
2018-09-02T07:48:49.392Z,53.30
2018-09-02T07:51:18.571Z,53.00
2018-09-02T07:53:48.289Z,53.20
2018-09-02T07:56:17.370Z,53.20
2018-09-02T07:58:46.303Z,53.90
2018-09-02T08:01:15.260Z,53.50
2018-09-02T08:03:44.123Z,53.60
2018-09-02T08:06:14.099Z,53.60
2018-09-02T08:08:43.003Z,53.60
2018-09-02T08:11:11.878Z,53.30
2018-09-02T08:13:41.063Z,52.70
2018-09-02T08:16:09.951Z,52.60
2018-09-02T08:18:38.831Z,52.10
2018-09-02T08:21:07.727Z,51.70
2018-09-02T08:23:36.586Z,52.70
2018-09-02T08:26:06.039Z,52.00
2018-09-02T08:28:34.935Z,51.70
2018-09-02T08:31:04.162Z,52.00
2018-09-02T08:33:33.039Z,51.80
2018-09-02T08:36:01.974Z,52.30
2018-09-02T08:38:30.891Z,52.30
2018-09-02T08:41:00.031Z,52.40
2018-09-02T08:43:29.029Z,52.30
2018-09-02T08:45:57.902Z,52.40
2018-09-02T08:48:26.792Z,52.10
2018-09-02T08:50:57.061Z,52.10
2018-09-02T08:53:26.257Z,52.30
2018-09-02T08:55:55.156Z,52.00
2018-09-02T08:58:24.026Z,52.70
2018-09-02T09:00:53.320Z,53.50
2018-09-02T09:03:22.406Z,53.00
2018-09-02T09:05:51.778Z,52.60
2018-09-02T09:08:20.919Z,52.30
2018-09-02T09:10:49.555Z,52.10
2018-09-02T09:13:18.749Z,51.50
2018-09-02T09:15:47.688Z,51.70
2018-09-02T09:18:16.602Z,51.40
2018-09-02T09:20:45.466Z,51.40
2018-09-02T09:23:14.342Z,51.40
2018-09-02T09:25:43.329Z,51.70
2018-09-02T09:28:12.241Z,51.40
2018-09-02T09:30:41.412Z,51.10
2018-09-02T09:33:10.564Z,50.80
2018-09-02T09:35:39.713Z,51.10
2018-09-02T09:38:09.016Z,50.80
2018-09-02T09:40:37.903Z,50.80
2018-09-02T09:43:06.804Z,50.80
2018-09-02T09:45:35.773Z,50.80
2018-09-02T09:48:04.702Z,50.40
2018-09-02T09:50:33.923Z,50.40
2018-09-02T09:53:03.142Z,50.40
2018-09-02T09:55:32.981Z,50.10
2018-09-02T09:58:02.339Z,50.10
2018-09-02T10:00:32.236Z,49.90
2018-09-02T10:03:01.939Z,49.90
2018-09-02T10:05:31.162Z,50.10
2018-09-02T10:08:00.289Z,49.90
2018-09-02T10:10:29.222Z,50.20
2018-09-02T10:12:58.100Z,50.90
2018-09-02T10:15:27.015Z,50.80
2018-09-02T10:17:55.915Z,51.10
2018-09-02T10:20:25.520Z,51.40
2018-09-02T10:22:54.415Z,51.40
2018-09-02T10:25:23.643Z,51.40
2018-09-02T10:27:52.768Z,50.90
2018-09-02T10:30:21.976Z,51.70
2018-09-02T10:32:51.096Z,51.70
2018-09-02T10:35:20.216Z,51.20
2018-09-02T10:37:49.399Z,51.50
2018-09-02T10:40:18.478Z,51.10
2018-09-02T10:42:47.790Z,51.40
2018-09-02T10:45:16.722Z,51.40
2018-09-02T10:47:45.652Z,50.90
2018-09-02T10:50:15.178Z,50.80
2018-09-02T10:52:44.094Z,51.10
2018-09-02T10:55:12.974Z,51.20
2018-09-02T10:57:42.176Z,50.90
2018-09-02T11:00:11.335Z,50.70
2018-09-02T11:02:40.865Z,50.90
2018-09-02T11:05:10.175Z,50.80
2018-09-02T11:07:39.113Z,50.50
2018-09-02T11:10:08.062Z,50.40
2018-09-02T11:12:37.026Z,50.20
2018-09-02T11:15:06.523Z,50.20
2018-09-02T11:17:35.415Z,49.90
2018-09-02T11:20:04.287Z,49.60
2018-09-02T11:22:33.199Z,49.80
2018-09-02T11:25:02.310Z,49.50
2018-09-02T11:27:31.205Z,49.30
2018-09-02T11:30:00.070Z,49.20
2018-09-02T11:32:29.195Z,49.30
2018-09-02T11:34:58.274Z,49.00
2018-09-02T11:37:27.373Z,49.00
2018-09-02T11:39:56.470Z,49.00
2018-09-02T11:42:25.910Z,48.90
2018-09-02T11:44:55.113Z,48.70
2018-09-02T11:47:24.033Z,48.70
2018-09-02T11:49:53.217Z,48.10
2018-09-02T11:52:22.083Z,48.00
2018-09-02T11:54:50.966Z,47.40
2018-09-02T11:57:20.114Z,47.10
2018-09-02T11:59:49.355Z,46.70
2018-09-02T12:02:18.450Z,46.50
2018-09-02T12:04:47.326Z,46.40
2018-09-02T12:07:16.266Z,46.10
2018-09-02T12:09:45.135Z,45.80
2018-09-02T12:12:14.043Z,45.50
2018-09-02T12:14:42.899Z,45.20
2018-09-02T12:17:11.775Z,45.00
2018-09-02T12:19:40.649Z,44.70
2018-09-02T12:22:09.541Z,44.70
2018-09-02T12:24:38.463Z,44.60
2018-09-02T12:27:07.634Z,44.90
2018-09-02T12:29:36.538Z,44.70
2018-09-02T12:32:05.513Z,44.70
2018-09-02T12:34:34.508Z,44.40
2018-09-02T12:37:04.184Z,44.70
2018-09-02T12:39:33.180Z,44.90
2018-09-02T12:42:02.119Z,45.00
2018-09-02T12:44:30.951Z,45.00
2018-09-02T12:47:00.131Z,44.90
2018-09-02T12:49:29.076Z,44.60
2018-09-02T12:51:58.284Z,43.90
2018-09-02T12:54:27.355Z,43.40
2018-09-02T12:56:56.238Z,43.00
2018-09-02T12:59:25.391Z,42.50
2018-09-02T13:01:54.564Z,41.80
2018-09-02T13:04:24.067Z,41.20
2018-09-02T13:06:53.166Z,40.70
2018-09-02T13:09:22.059Z,40.60
2018-09-02T13:11:50.924Z,40.20
2018-09-02T13:14:19.805Z,40.30
2018-09-02T13:16:48.694Z,40.20
2018-09-02T13:19:17.829Z,39.90
2018-09-02T13:21:46.759Z,40.00
2018-09-02T13:24:15.923Z,40.20
2018-09-02T13:26:44.785Z,40.50
2018-09-02T13:29:13.686Z,40.50
2018-09-02T13:34:18.211Z,40.70
2018-09-02T13:36:47.388Z,40.90
2018-09-02T13:39:16.272Z,41.20
2018-09-02T13:41:45.300Z,41.30
2018-09-02T13:44:14.162Z,41.60
2018-09-02T13:46:43.330Z,41.90
2018-09-02T13:49:12.203Z,41.90
2018-09-02T13:51:41.938Z,41.90
2018-09-02T13:54:10.878Z,42.10
2018-09-02T13:56:40.221Z,42.10
2018-09-02T13:59:09.691Z,42.20
2018-09-02T14:01:38.816Z,41.90
2018-09-02T14:04:07.678Z,41.90
2018-09-02T14:06:37.106Z,41.90
2018-09-02T14:09:07.643Z,42.10
2018-09-02T14:11:36.715Z,42.20
2018-09-02T14:14:05.880Z,42.10
2018-09-02T14:16:34.771Z,42.20
2018-09-02T14:19:03.635Z,42.10
2018-09-02T14:21:32.525Z,42.10
2018-09-02T14:24:01.408Z,42.20
2018-09-02T14:26:30.583Z,42.10
2018-09-02T14:29:00.419Z,41.80
2018-09-02T14:31:29.295Z,41.50
2018-09-02T14:33:58.167Z,41.50
2018-09-02T14:36:27.066Z,41.30
2018-09-02T14:38:56.000Z,41.50
2018-09-02T14:41:24.906Z,41.50
2018-09-02T14:43:53.866Z,41.30
2018-09-02T14:46:23.135Z,41.30
2018-09-02T14:48:52.057Z,41.20
2018-09-02T14:51:20.935Z,41.30
2018-09-02T14:53:50.198Z,41.30
2018-09-02T14:56:19.015Z,41.60
2018-09-02T14:58:47.903Z,41.60
2018-09-02T15:01:16.801Z,41.60
2018-09-02T15:03:45.666Z,41.60
2018-09-02T15:06:14.581Z,41.80
2018-09-02T15:08:43.729Z,41.80
2018-09-02T15:11:12.702Z,41.80
2018-09-02T15:13:41.554Z,41.80
2018-09-02T15:16:10.948Z,41.60
2018-09-02T15:18:40.733Z,41.60
2018-09-02T15:21:10.295Z,41.60
2018-09-02T15:23:39.028Z,41.80
2018-09-02T15:26:08.165Z,41.80
2018-09-02T15:28:37.075Z,41.90
2018-09-02T15:31:05.946Z,41.90
2018-09-02T15:33:35.146Z,42.10
2018-09-02T15:36:04.046Z,42.10
2018-09-02T15:38:33.347Z,42.10
2018-09-02T15:41:02.499Z,41.90
2018-09-02T15:43:31.476Z,42.10
2018-09-02T15:46:00.354Z,41.90
2018-09-02T15:48:29.233Z,41.90
2018-09-02T15:50:58.130Z,41.90
2018-09-02T15:53:27.259Z,41.90
2018-09-02T15:55:56.120Z,42.10
2018-09-02T15:58:25.348Z,42.20
2018-09-02T16:00:54.462Z,42.20
2018-09-02T16:03:23.843Z,42.20
2018-09-02T16:05:52.730Z,42.20
2018-09-02T16:08:21.927Z,42.40
2018-09-02T16:10:51.291Z,42.50
2018-09-02T16:13:20.422Z,42.50
2018-09-02T16:15:49.299Z,42.40
2018-09-02T16:18:18.164Z,42.70
2018-09-02T16:20:47.334Z,42.40
2018-09-02T16:23:16.218Z,42.20
2018-09-02T16:28:20.362Z,41.90
2018-09-02T16:30:49.356Z,41.50
2018-09-02T16:33:18.260Z,41.80
2018-09-02T16:35:47.146Z,41.80
2018-09-02T16:38:16.263Z,41.80
2018-09-02T16:40:45.149Z,41.50
2018-09-02T16:43:14.288Z,41.50
2018-09-02T16:45:43.588Z,41.60
2018-09-02T16:48:12.502Z,41.60
2018-09-02T16:50:41.674Z,41.60
2018-09-02T16:53:10.566Z,41.60
2018-09-02T16:55:39.768Z,41.60
2018-09-02T16:58:08.655Z,41.60
2018-09-02T17:00:37.653Z,41.90
2018-09-02T17:03:06.538Z,42.20
2018-09-02T17:05:35.448Z,42.50
2018-09-02T17:08:04.632Z,42.80
2018-09-02T17:10:33.851Z,43.00
2018-09-02T17:13:03.019Z,43.10
2018-09-02T17:15:31.912Z,43.30
2018-09-02T17:18:01.142Z,43.40
2018-09-02T17:20:32.590Z,43.60
2018-09-02T17:23:07.016Z,43.90
2018-09-02T17:25:36.461Z,44.00
2018-09-02T17:28:05.303Z,43.90
2018-09-02T17:30:34.235Z,44.00
2018-09-02T17:33:03.262Z,43.90
2018-09-02T17:35:32.239Z,44.00
2018-09-02T17:38:01.147Z,44.10
2018-09-02T17:40:30.179Z,44.10
2018-09-02T17:42:59.368Z,44.10
2018-09-02T17:45:28.623Z,44.10
2018-09-02T17:47:57.618Z,43.70
2018-09-02T17:50:26.819Z,43.60
2018-09-02T17:52:56.265Z,43.60
2018-09-02T17:55:25.169Z,43.90
2018-09-02T17:57:54.044Z,43.90
2018-09-02T18:00:28.039Z,44.00
2018-09-02T18:02:56.979Z,43.90
2018-09-02T18:05:26.819Z,44.00
2018-09-02T18:07:55.924Z,43.90
2018-09-02T18:10:24.800Z,44.30
2018-09-02T18:12:53.687Z,44.10
2018-09-02T18:15:22.656Z,44.10
2018-09-02T18:17:51.565Z,44.40
2018-09-02T18:20:20.561Z,44.60
2018-09-02T18:22:49.445Z,44.70
2018-09-02T18:25:18.552Z,44.90
2018-09-02T18:27:50.311Z,45.30
2018-09-02T18:30:19.185Z,45.60
2018-09-02T18:32:50.269Z,45.60
2018-09-02T18:35:22.091Z,45.60
2018-09-02T18:37:54.310Z,45.80
2018-09-02T18:40:26.140Z,45.80
2018-09-02T18:42:58.199Z,45.80
2018-09-02T18:45:27.792Z,45.80
2018-09-02T18:47:59.152Z,45.80
2018-09-02T18:50:30.984Z,46.10
2018-09-02T18:53:02.115Z,46.20
2018-09-02T18:55:34.565Z,46.20
2018-09-02T18:58:07.476Z,46.10
2018-09-02T19:00:39.746Z,46.10
2018-09-02T19:03:12.686Z,46.10
2018-09-02T19:05:42.659Z,45.90
2018-09-02T19:08:15.019Z,45.90
2018-09-02T19:10:47.190Z,46.20
2018-09-02T19:13:21.067Z,46.40
2018-09-02T19:15:52.765Z,46.10
2018-09-02T19:18:21.687Z,45.90
2018-09-02T19:20:50.619Z,45.80
2018-09-02T19:23:19.571Z,45.90
2018-09-02T19:25:48.418Z,46.10
2018-09-02T19:28:17.379Z,46.20
2018-09-02T19:30:46.264Z,46.40
2018-09-02T19:33:15.574Z,46.70
2018-09-02T19:35:44.771Z,46.70
2018-09-02T19:38:13.957Z,46.80
2018-09-02T19:40:42.956Z,47.10
2018-09-02T19:43:12.203Z,47.40
2018-09-02T19:45:41.137Z,47.40
2018-09-02T19:48:10.140Z,47.50
2018-09-02T19:50:39.328Z,47.40
2018-09-02T19:53:08.818Z,47.40
2018-09-02T19:55:39.961Z,47.50
2018-09-02T19:58:09.352Z,48.00
2018-09-02T20:00:38.368Z,47.80
2018-09-02T20:03:07.591Z,47.70
2018-09-02T20:05:38.264Z,47.50
2018-09-02T20:08:08.607Z,48.00
2018-09-02T20:10:38.947Z,48.30
2018-09-02T20:13:08.003Z,48.40
2018-09-02T20:15:36.908Z,48.00
2018-09-02T20:18:05.898Z,48.60
2018-09-02T20:20:34.879Z,48.60
2018-09-02T20:23:03.923Z,48.70
2018-09-02T20:25:32.977Z,48.60
2018-09-02T20:28:02.607Z,49.00
2018-09-02T20:30:31.640Z,49.00
2018-09-02T20:33:00.983Z,49.30
2018-09-02T20:35:29.954Z,49.50
2018-09-02T20:37:59.154Z,49.80
2018-09-02T20:40:28.100Z,49.60
2018-09-02T20:42:57.099Z,49.80
2018-09-02T20:45:27.140Z,49.80
2018-09-02T20:47:57.206Z,50.20
2018-09-02T20:50:26.355Z,50.20
2018-09-02T20:52:55.238Z,50.40
2018-09-02T20:55:24.133Z,50.40
2018-09-02T20:57:53.164Z,50.70
2018-09-02T21:00:22.114Z,51.10
2018-09-02T21:02:51.298Z,51.10
2018-09-02T21:05:20.238Z,51.10
2018-09-02T21:07:49.121Z,51.10
2018-09-02T21:10:17.988Z,51.10
2018-09-02T21:12:46.880Z,51.10
2018-09-02T21:15:15.842Z,51.10
2018-09-02T21:17:45.098Z,51.10
2018-09-02T21:20:14.232Z,51.50
2018-09-02T21:22:43.441Z,51.70
2018-09-02T21:25:12.393Z,52.00
2018-09-02T21:27:41.447Z,51.80
2018-09-02T21:30:10.645Z,52.10
2018-09-02T21:32:39.544Z,52.00
2018-09-02T21:35:08.455Z,52.00
2018-09-02T21:37:37.673Z,52.10
2018-09-02T21:40:06.549Z,52.10
2018-09-02T21:42:35.447Z,52.40
2018-09-02T21:45:04.371Z,52.40
2018-09-02T21:47:33.807Z,52.30
2018-09-02T21:50:02.923Z,52.10
2018-09-02T21:52:32.164Z,52.10
2018-09-02T21:55:01.264Z,52.10
2018-09-02T21:57:36.843Z,52.30
2018-09-02T22:00:09.421Z,52.40
2018-09-02T22:02:39.590Z,52.00
2018-09-02T22:05:11.927Z,51.80
2018-09-02T22:07:43.359Z,52.00
2018-09-02T22:10:13.859Z,52.10
2018-09-02T22:12:43.917Z,52.10
2018-09-02T22:15:15.500Z,51.70
2018-09-02T22:17:47.003Z,51.50
2018-09-02T22:20:19.020Z,51.50
2018-09-02T22:22:49.909Z,52.10
2018-09-02T22:25:21.058Z,52.10
2018-09-02T22:27:51.270Z,52.00
2018-09-02T22:30:21.663Z,52.10
2018-09-02T22:32:52.310Z,52.30
2018-09-02T22:35:22.774Z,52.30
2018-09-02T22:37:53.022Z,52.40
2018-09-02T22:40:22.003Z,52.40
2018-09-02T22:42:52.943Z,52.60
2018-09-02T22:45:23.394Z,52.90
2018-09-02T22:47:53.811Z,52.90
2018-09-02T22:50:24.072Z,52.70
2018-09-02T22:52:55.343Z,52.40
2018-09-02T22:55:25.663Z,52.60
2018-09-02T22:57:56.344Z,52.90
2018-09-02T23:00:26.863Z,52.70
2018-09-02T23:02:57.470Z,52.70
2018-09-02T23:05:27.938Z,52.90
2018-09-02T23:07:58.263Z,52.90
2018-09-02T23:10:29.245Z,52.90
2018-09-02T23:13:00.117Z,53.00
2018-09-02T23:15:30.543Z,52.90
2018-09-02T23:18:01.110Z,52.70
2018-09-02T23:20:31.605Z,52.90
2018-09-02T23:23:02.252Z,52.90
2018-09-02T23:25:33.097Z,52.90
2018-09-02T23:28:07.470Z,52.70
2018-09-02T23:30:38.105Z,52.70
2018-09-02T23:33:08.313Z,52.90
2018-09-02T23:35:38.797Z,52.90
2018-09-02T23:38:09.341Z,53.20
2018-09-02T23:40:39.754Z,52.90
2018-09-02T23:43:10.749Z,53.00
2018-09-02T23:45:41.541Z,53.30
2018-09-02T23:48:12.308Z,53.60
2018-09-02T23:50:43.472Z,53.90
2018-09-02T23:53:13.893Z,53.80
2018-09-02T23:55:43.189Z,53.90
2018-09-02T23:58:13.600Z,54.20
